Time,TemperatureF,DewpointF,PressureIn,WindDirection,WindDirectionDegrees,WindSpeedMPH,WindSpeedGustMPH,Humidity,HourlyPrecipIn,Conditions,Clouds,dailyrainin,SoftwareType,DateUTC
2013-02-26 00:01:00,29.0,26.0,-100.00,East,100,9.0,12.0,85,0.00,,,-99.99,,2013-02-26 05:01:00,
2013-02-26 00:12:00,29.0,25.0,-100.00,East,95,10.0,13.0,85,0.00,,,-99.99,,2013-02-26 05:12:00,
2013-02-26 00:22:00,29.0,26.0,-100.00,East,95,9.0,12.0,86,0.00,,,-99.99,,2013-02-26 05:22:00,
2013-02-26 00:32:00,29.0,26.0,-100.00,East,95,7.0,13.0,86,0.00,,,-99.99,,2013-02-26 05:32:00,
2013-02-26 00:43:00,29.0,26.0,-100.00,East,95,9.0,14.0,87,0.00,,,-99.99,,2013-02-26 05:43:00,
2013-02-26 00:52:00,29.0,26.0,-100.00,East,95,11.0,14.0,88,0.00,,,-99.99,,2013-02-26 05:52:00,
2013-02-26 01:02:00,29.0,26.0,-100.00,East,100,9.0,14.0,88,0.00,,,-99.99,,2013-02-26 06:02:00,
2013-02-26 01:11:00,29.0,26.0,-100.00,East,100,11.0,15.0,88,0.00,,,-99.99,,2013-02-26 06:11:00,
2013-02-26 01:21:00,29.0,26.0,-100.00,East,95,11.0,16.0,88,0.00,,,-99.99,,2013-02-26 06:21:00,
2013-02-26 01:32:00,29.0,26.0,-100.00,East,95,10.0,16.0,88,0.00,,,-99.99,,2013-02-26 06:32:00,
2013-02-26 01:42:00,29.0,26.0,-100.00,East,95,9.0,14.0,88,0.00,,,-99.99,,2013-02-26 06:42:00,
2013-02-26 01:52:00,29.0,26.0,-100.00,East,95,6.0,15.0,88,0.00,,,-99.99,,2013-02-26 06:52:00,
2013-02-26 02:01:00,29.0,26.0,-100.00,East,95,9.0,17.0,87,0.00,,,-99.99,,2013-02-26 07:01:00,
2013-02-26 02:11:00,29.0,26.0,-100.00,East,95,11.0,16.0,87,0.00,,,-99.99,,2013-02-26 07:11:00,
2013-02-26 02:22:00,30.0,26.0,-100.00,East,95,11.0,16.0,87,0.00,,,-99.99,,2013-02-26 07:22:00,
2013-02-26 02:32:00,30.0,26.0,-100.00,East,95,10.0,14.0,87,0.00,,,-99.99,,2013-02-26 07:32:00,
2013-02-26 02:42:00,30.0,26.0,-100.00,East,95,9.0,14.0,87,0.00,,,-99.99,,2013-02-26 07:42:00,
2013-02-26 02:51:00,30.0,27.0,-100.00,East,95,9.0,13.0,88,0.00,,,-99.99,,2013-02-26 07:51:00,
2013-02-26 03:02:00,29.0,26.0,-100.00,East,95,10.0,15.0,88,0.00,,,-99.99,,2013-02-26 08:02:00,
2013-02-26 03:11:00,29.0,26.0,-100.00,East,95,11.0,16.0,88,0.00,,,-99.99,,2013-02-26 08:11:00,
2013-02-26 03:21:00,29.0,26.0,-100.00,East,95,9.0,16.0,88,0.00,,,-99.99,,2013-02-26 08:21:00,
2013-02-26 03:32:00,29.0,26.0,-100.00,East,90,7.0,17.0,89,0.00,,,-99.99,,2013-02-26 08:32:00,
2013-02-26 03:42:00,29.0,26.0,-100.00,East,95,12.0,17.0,89,0.00,,,-99.99,,2013-02-26 08:42:00,
2013-02-26 03:52:00,29.0,27.0,-100.00,East,95,12.0,19.0,88,0.00,,,-99.99,,2013-02-26 08:52:00,
2013-02-26 04:02:00,29.0,27.0,-100.00,East,95,11.0,17.0,89,0.00,,,-99.99,,2013-02-26 09:02:00,
2013-02-26 04:11:00,29.0,26.0,-100.00,East,95,14.0,20.0,87,0.00,,,-99.99,,2013-02-26 09:11:00,
2013-02-26 04:21:00,30.0,26.0,-100.00,East,95,12.0,19.0,87,0.00,,,-99.99,,2013-02-26 09:21:00,
2013-02-26 04:32:00,30.0,26.0,-100.00,East,95,12.0,19.0,86,0.00,,,-99.99,,2013-02-26 09:32:00,
2013-02-26 04:43:00,30.0,26.0,-100.00,East,95,13.0,19.0,86,0.00,,,-99.99,,2013-02-26 09:43:00,
2013-02-26 04:51:00,30.0,26.0,-100.00,East,90,13.0,21.0,86,0.00,,,-99.99,,2013-02-26 09:51:00,
2013-02-26 05:01:00,30.0,26.0,-100.00,East,95,12.0,21.0,85,0.00,,,-99.99,,2013-02-26 10:01:00,
2013-02-26 05:11:00,30.0,26.0,-100.00,East,100,15.0,20.0,85,0.00,,,-99.99,,2013-02-26 10:11:00,
2013-02-26 05:21:00,30.0,26.0,-100.00,East,100,14.0,17.0,85,0.00,,,-99.99,,2013-02-26 10:21:00,
2013-02-26 05:32:00,30.0,26.0,-100.00,East,90,11.0,17.0,86,0.00,,,-99.99,,2013-02-26 10:32:00,
2013-02-26 05:42:00,30.0,26.0,-100.00,East,90,11.0,19.0,85,0.00,,,-99.99,,2013-02-26 10:42:00,
2013-02-26 05:52:00,30.0,26.0,-100.00,East,95,12.0,21.0,85,0.00,,,-99.99,,2013-02-26 10:52:00,
2013-02-26 06:01:00,30.0,26.0,-100.00,East,95,16.0,22.0,85,0.00,,,-99.99,,2013-02-26 11:01:00,
2013-02-26 06:12:00,29.0,26.0,-100.00,East,95,12.0,21.0,85,0.00,,,-99.99,,2013-02-26 11:12:00,
2013-02-26 06:22:00,30.0,26.0,-100.00,East,95,11.0,22.0,85,0.00,,,-99.99,,2013-02-26 11:22:00,
2013-02-26 06:32:00,30.0,26.0,-100.00,East,85,9.0,20.0,85,0.00,,,-99.99,,2013-02-26 11:32:00,
2013-02-26 06:42:00,30.0,26.0,-100.00,East,95,14.0,21.0,84,0.00,,,-99.99,,2013-02-26 11:42:00,
2013-02-26 06:52:00,30.0,26.0,-100.00,East,95,15.0,23.0,84,0.00,,,-99.99,,2013-02-26 11:52:00,
2013-02-26 07:02:00,30.0,26.0,-100.00,East,95,14.0,24.0,84,0.00,,,-99.99,,2013-02-26 12:02:00,
2013-02-26 07:11:00,30.0,26.0,-100.00,East,95,16.0,22.0,84,0.00,,,-99.99,,2013-02-26 12:11:00,
2013-02-26 07:22:00,30.0,26.0,-100.00,East,90,15.0,24.0,84,0.00,,,-99.99,,2013-02-26 12:22:00,
2013-02-26 07:32:00,30.0,26.0,-100.00,East,95,14.0,24.0,84,0.00,,,-99.99,,2013-02-26 12:32:00,
2013-02-26 07:42:00,30.0,26.0,-100.00,East,95,11.0,24.0,84,0.00,,,-99.99,,2013-02-26 12:42:00,
2013-02-26 07:52:00,30.0,26.0,-100.00,East,95,11.0,24.0,84,0.00,,,-99.99,,2013-02-26 12:52:00,
2013-02-26 08:02:00,30.0,26.0,-100.00,East,95,16.0,22.0,85,0.00,,,-99.99,,2013-02-26 13:02:00,
2013-02-26 08:11:00,30.0,26.0,-100.00,East,90,16.0,22.0,85,0.00,,,-99.99,,2013-02-26 13:11:00,
2013-02-26 08:22:00,30.0,26.0,-100.00,East,95,15.0,24.0,84,0.00,,,-99.99,,2013-02-26 13:22:00,
2013-02-26 08:32:00,30.0,26.0,-100.00,East,90,16.0,25.0,85,0.00,,,-99.99,,2013-02-26 13:32:00,
2013-02-26 08:42:00,30.0,27.0,-100.00,East,95,19.0,27.0,85,0.00,,,-99.99,,2013-02-26 13:42:00,
2013-02-26 08:51:00,30.0,27.0,-100.00,East,95,17.0,24.0,85,0.00,,,-99.99,,2013-02-26 13:51:00,
2013-02-26 09:01:00,31.0,27.0,-100.00,East,95,14.0,25.0,86,0.00,,,-99.99,,2013-02-26 14:01:00,
2013-02-26 09:11:00,31.0,27.0,-100.00,East,95,19.0,27.0,85,0.00,,,-99.99,,2013-02-26 14:11:00,
2013-02-26 09:21:00,31.0,27.0,-100.00,East,95,16.0,25.0,85,0.00,,,-99.99,,2013-02-26 14:21:00,
2013-02-26 09:32:00,31.0,27.0,-100.00,East,95,18.0,27.0,85,0.00,,,-99.99,,2013-02-26 14:32:00,
2013-02-26 09:42:00,31.0,27.0,-100.00,East,95,19.0,27.0,84,0.00,,,-99.99,,2013-02-26 14:42:00,
2013-02-26 09:52:00,31.0,27.0,-100.00,East,95,18.0,28.0,84,0.00,,,-99.99,,2013-02-26 14:52:00,
2013-02-26 10:02:00,31.0,27.0,-100.00,East,95,17.0,24.0,84,0.00,,,-99.99,,2013-02-26 15:02:00,
2013-02-26 10:11:00,31.0,27.0,-100.00,East,95,17.0,24.0,85,0.00,,,-99.99,,2013-02-26 15:11:00,
2013-02-26 10:22:00,31.0,28.0,-100.00,East,95,16.0,27.0,88,2.24,,,-99.99,,2013-02-26 15:22:00,
2013-02-26 10:32:00,31.0,29.0,-100.00,East,95,17.0,25.0,91,2.83,,,-99.99,,2013-02-26 15:32:00,
2013-02-26 10:40:00,31.0,30.0,-100.00,East,95,20.0,25.0,94,3.94,,,-99.99,,2013-02-26 15:40:00,
2013-02-26 10:42:00,31.0,29.0,-100.00,East,100,19.0,27.0,92,4.53,,,-99.99,,2013-02-26 15:42:00,
2013-02-26 10:52:00,31.0,30.0,-100.00,East,95,21.0,26.0,93,6.22,,,-99.99,,2013-02-26 15:52:00,
2013-02-26 11:02:00,31.0,30.0,-100.00,East,95,20.0,25.0,94,3.94,,,-99.99,,2013-02-26 16:02:00,
2013-02-26 11:11:00,31.0,30.0,-100.00,East,95,20.0,25.0,94,3.94,,,-99.99,,2013-02-26 16:11:00,
2013-02-26 11:22:00,31.0,30.0,-100.00,East,95,20.0,25.0,94,3.94,,,-99.99,,2013-02-26 16:22:00,
2013-02-26 11:32:00,31.0,30.0,-100.00,East,95,20.0,25.0,94,3.94,,,-99.99,,2013-02-26 16:32:00,
2013-02-26 13:42:00,32.0,-99.9,-100.00,East,100,13.0,14.0,-999,15.87,,,-99.99,,2013-02-26 18:42:00,
2013-02-26 13:53:00,32.0,-99.9,-100.00,East,95,13.0,13.0,-999,6.22,,,-99.99,,2013-02-26 18:53:00,
2013-02-26 14:02:00,32.0,-99.9,-100.00,East,95,13.0,13.0,-999,10.20,,,-99.99,,2013-02-26 19:02:00,
2013-02-26 14:11:00,32.0,-99.9,-100.00,East,100,13.0,13.0,-999,8.50,,,-99.99,,2013-02-26 19:11:00,
2013-02-26 14:22:00,32.0,-99.9,-100.00,ESE,105,13.0,13.0,-999,10.75,,,-99.99,,2013-02-26 19:22:00,
2013-02-26 14:32:00,32.0,-99.9,-100.00,East,100,13.0,13.0,-999,5.67,,,-99.99,,2013-02-26 19:32:00,
2013-02-26 14:42:00,32.0,-99.9,-100.00,East,95,13.0,13.0,-999,3.39,,,-99.99,,2013-02-26 19:42:00,
2013-02-26 14:52:00,32.0,-99.9,-100.00,East,100,13.0,13.0,-999,5.08,,,-99.99,,2013-02-26 19:52:00,
2013-02-26 15:01:00,32.0,-99.9,-100.00,East,100,13.0,13.0,-999,1.69,,,-99.99,,2013-02-26 20:01:00,
2013-02-26 15:11:00,32.0,-99.9,-100.00,East,100,13.0,13.0,-999,2.24,,,-99.99,,2013-02-26 20:11:00,
2013-02-26 15:22:00,32.0,-99.9,-100.00,East,100,13.0,14.0,-999,8.50,,,-99.99,,2013-02-26 20:22:00,
2013-02-26 15:32:00,32.0,-99.9,-100.00,East,100,13.0,14.0,-999,9.61,,,-99.99,,2013-02-26 20:32:00,
2013-02-26 15:42:00,32.0,-99.9,-100.00,East,90,13.0,14.0,-999,6.22,,,-99.99,,2013-02-26 20:42:00,
2013-02-26 15:52:00,32.0,-99.9,-100.00,East,100,13.0,14.0,-999,9.06,,,-99.99,,2013-02-26 20:52:00,
2013-02-26 16:02:00,32.0,-99.9,-100.00,East,100,13.0,13.0,-999,5.08,,,-99.99,,2013-02-26 21:02:00,
2013-02-26 16:11:00,32.0,-99.9,-100.00,East,100,13.0,14.0,-999,4.53,,,-99.99,,2013-02-26 21:11:00,
2013-02-26 16:21:00,32.0,-99.9,-100.00,ESE,105,13.0,13.0,-999,3.39,,,-99.99,,2013-02-26 21:21:00,
2013-02-26 16:31:00,32.0,-99.9,-100.00,East,100,13.0,13.0,-999,5.08,,,-99.99,,2013-02-26 21:31:00,
2013-02-26 16:41:00,32.0,-99.9,-100.00,East,100,13.0,13.0,-999,3.94,,,-99.99,,2013-02-26 21:41:00,
2013-02-26 16:50:00,32.0,-99.9,-100.00,East,95,13.0,13.0,-999,0.55,,,-99.99,,2013-02-26 21:50:00,
2013-02-26 16:51:00,32.0,-99.9,-100.00,East,100,13.0,13.0,-999,0.55,,,-99.99,,2013-02-26 21:51:00,
2013-02-26 17:01:00,32.0,-99.9,-100.00,East,95,13.0,13.0,-999,0.55,,,-99.99,,2013-02-26 22:01:00,
2013-02-26 17:11:00,32.0,-99.9,-100.00,East,95,13.0,13.0,-999,0.55,,,-99.99,,2013-02-26 22:11:00,
2013-02-26 17:21:00,32.0,-99.9,-100.00,East,95,13.0,13.0,-999,0.55,,,-99.99,,2013-02-26 22:21:00,
2013-02-26 17:32:00,32.0,-99.9,-100.00,East,95,13.0,13.0,-999,0.55,,,-99.99,,2013-02-26 22:32:00,
2013-02-26 17:42:00,32.0,-99.9,-100.00,East,95,13.0,13.0,-999,0.55,,,-99.99,,2013-02-26 22:42:00,